首页
METAR-TAF:

METAR-TAF

机场 :

明尼阿波利斯-圣保罗国际机场

明尼阿波利斯, 明尼蘇達州, 美国

纬度: 44-52-59N, 经度: 093-13-44W, 海拔: 256米

当前天气观测

该预报发布于58分钟前的15:53 UTC
风速7节,风向东南
温度 18°C
湿度 64%
气压 1018 hPa
能見度: 16.1公里
少量云层高于25000英尺

METAR: KMSP 231553Z 14007KT 10SM FEW250 18/11 A3006 RMK AO2 SLP179 T01830111

时间: 11:51 (16:51 UTC)

预报

该预报发布于2小时和20分钟前的14:31 UTC
预报有效从23日的 15点(UTC)到 24日的 18点(UTC)
风速7节,风向南转南东
能見度: 10公里
少量云层高于25000英尺
从 23日的 1700点(UTC)
风速12节,风向东南,有时为22节阵风
能見度: 10公里
少量云层高于4000英尺
散云层高于25000英尺
从 24日的 0000点(UTC)
风速14节,风向东南
能見度: 10公里
多云层高于25000英尺
从 24日的 1500点(UTC)
风速14节,风向南转南东,有时为24节阵风
能見度: 10公里
多云层高于15000英尺

TAF: KMSP 231431Z 2315/2418 16007KT P6SM FEW250 FM231700 13012G22KT P6SM FEW040 SCT250 FM240000 14014KT P6SM BKN250 FM241500 16014G24KT P6SM BKN150

超过4000个机场的气象观测和天气预报(METAR&TAF报告)。

可查询的气象台以黄色和红色小点在地图上表示。

将鼠标移到小点上方,可查看气象台名称。

然后点击查看天气观测和预报。

如需切换地图:点击带黑十字的绿色按钮放大地图;点击带横线的绿色按钮缩小地图;或者点击绿色箭头查看邻近地区的地图。


METAR-TAF: